This is the latest recevied weather packets stored in our database for station/object 2E1HJE-10. If no packets are shown the sender has not sent any weather packets the latest 10 day(s).
| Time | Temp. | Humidity | Pressure | Rain* | Wind** | Luminosity | Snow |
|---|---|---|---|---|---|---|---|
| 1777725507 | 20° C | 46% | 1016.6 hPa | 0 mm | - | - | - |
| 1777724907 | 20° C | 46% | 1016.6 hPa | 0 mm | - | - | - |
| 1777724307 | 20° C | 46% | 1016.6 hPa | 0 mm | - | - | - |
| 1777723708 | 20° C | 46% | 1016.6 hPa | 0 mm | - | - | - |
| 1777723107 | 19.44° C | 51% | 1017.1 hPa | 0 mm | - | - | - |
| 1777722507 | 19.44° C | 51% | 1017.1 hPa | 0 mm | - | - | - |
| 1777721307 | 18.89° C | 51% | 1017.1 hPa | 0 mm | - | - | - |
| 1777720707 | 18.89° C | 49% | 1017.1 hPa | 0 mm | - | - | - |
| 1777720107 | 18.33° C | 49% | 1017.1 hPa | 0 mm | - | - | - |
| 1777719508 | 18.33° C | 55% | 1017.9 hPa | 0 mm | - | - | - |
| 1777718907 | 18.89° C | 53% | 1017.7 hPa | 0 mm | - | - | - |
| 1777718307 | 18.33° C | 53% | 1017.7 hPa | 0 mm | - | - | - |
| 1777717707 | 17.78° C | 53% | 1017.7 hPa | 0 mm | - | - | - |
| 1777717107 | 17.78° C | 53% | 1017.7 hPa | 0 mm | - | - | - |
| 1777716507 | 17.78° C | 53% | 1017.7 hPa | 0 mm | - | - | - |
| 1777715307 | 17.22° C | 65% | 1018.1 hPa | 0 mm | - | - | - |
| 1777714707 | 17.22° C | 65% | 1018.1 hPa | 0 mm | - | - | - |
| 1777714107 | 16.67° C | 65% | 1018.1 hPa | 0 mm | - | - | - |
| 1777713507 | 16.67° C | 66% | 1018.3 hPa | 0 mm | - | - | - |
| 1777712908 | 16.11° C | 66% | 1018.3 hPa | 0 mm | - | - | - |
| 1777712308 | 15.56° C | 80% | 1018.6 hPa | 0 mm | - | - | - |
| 1777711707 | 15.56° C | 80% | 1018.6 hPa | 0 mm | - | - | - |
| 1777711108 | 15.56° C | 73% | 1018.4 hPa | 0 mm | - | - | - |
| 1777710507 | 15° C | 73% | 1018.4 hPa | 0 mm | - | - | - |
| 1777709308 | 14.44° C | 73% | 1018.4 hPa | 0 mm | - | - | - |
* Rain latest hour (hover to see other rain measurements)
** Current wind speed in m/s (hover to see current wind gust speed)